createdAt,value
2017-10-22T00:00:12.616Z,82.32
2017-10-22T00:00:38.732Z,82.28
2017-10-22T00:01:04.875Z,82.28
2017-10-22T00:01:31.012Z,82.14
2017-10-22T00:01:58.309Z,82.75
2017-10-22T00:02:24.445Z,82.32
2017-10-22T00:02:50.571Z,82.32
2017-10-22T00:03:16.717Z,81.95
2017-10-22T00:03:42.832Z,82.23
2017-10-22T00:04:08.954Z,82.42
2017-10-22T00:04:35.309Z,82.32
2017-10-22T00:05:01.448Z,82.42
2017-10-22T00:05:27.575Z,82.61
2017-10-22T00:05:53.697Z,82.61
2017-10-22T00:06:19.815Z,82.42
2017-10-22T00:06:45.944Z,82.42
2017-10-22T00:07:12.060Z,82.32
2017-10-22T00:07:38.408Z,82.23
2017-10-22T00:08:04.736Z,82.14
2017-10-22T00:08:30.860Z,82.14
2017-10-22T00:08:56.978Z,81.95
2017-10-22T00:09:24.304Z,82.32
2017-10-22T00:09:50.427Z,82.9
2017-10-22T00:10:16.548Z,82.14
2017-10-22T00:10:42.700Z,82.14
2017-10-22T00:11:08.818Z,82.52
2017-10-22T00:11:34.933Z,82.14
2017-10-22T00:12:01.071Z,82.14
2017-10-22T00:12:27.800Z,82.23
2017-10-22T00:12:53.939Z,82.23
2017-10-22T00:13:20.061Z,81.56
2017-10-22T00:13:46.181Z,81.76
2017-10-22T00:14:12.351Z,81.76
2017-10-22T00:14:38.476Z,81.66
2017-10-22T00:15:04.590Z,82.04
2017-10-22T00:15:30.717Z,82.14
2017-10-22T00:15:56.837Z,82.14
2017-10-22T00:16:22.964Z,82.04
2017-10-22T00:16:49.086Z,81.76
2017-10-22T00:17:15.212Z,81.56
2017-10-22T00:17:41.339Z,81.76
2017-10-22T00:18:07.487Z,82.04
2017-10-22T00:18:33.612Z,81.47
2017-10-22T00:18:59.733Z,82.23
2017-10-22T00:19:25.856Z,82.14
2017-10-22T00:19:51.970Z,82.23
2017-10-22T00:20:18.098Z,82.14
2017-10-22T00:20:44.216Z,82.04
2017-10-22T00:21:10.337Z,81.66
2017-10-22T00:21:36.464Z,82.04
2017-10-22T00:22:02.581Z,81.76
2017-10-22T00:22:28.710Z,81.56
2017-10-22T00:22:54.830Z,81.76
2017-10-22T00:23:20.946Z,81.66
2017-10-22T00:23:47.072Z,81.66
2017-10-22T00:24:13.200Z,81.56
2017-10-22T00:24:39.316Z,81.66
2017-10-22T00:25:05.446Z,81.47
2017-10-22T00:25:31.567Z,81.76
2017-10-22T00:25:57.703Z,81.66
2017-10-22T00:26:23.811Z,81.66
2017-10-22T00:26:49.934Z,82.04
2017-10-22T00:27:16.060Z,81.95
2017-10-22T00:27:42.205Z,81.95
2017-10-22T00:28:08.321Z,81.66
2017-10-22T00:28:34.441Z,81.66
2017-10-22T00:29:00.566Z,81.95
2017-10-22T00:29:26.694Z,81.85
2017-10-22T00:29:52.812Z,81.56
2017-10-22T00:30:18.958Z,81.76
2017-10-22T00:30:45.079Z,81.56
2017-10-22T00:31:11.196Z,82.04
2017-10-22T00:31:37.324Z,81.85
2017-10-22T00:32:03.464Z,82.04
2017-10-22T00:32:29.592Z,82.04
2017-10-22T00:32:55.712Z,81.85
2017-10-22T00:33:21.854Z,81.95
2017-10-22T00:33:47.973Z,81.85
2017-10-22T00:34:14.091Z,82.61
2017-10-22T00:34:40.239Z,82.71
2017-10-22T00:35:06.363Z,82.04
2017-10-22T00:35:32.491Z,82.9
2017-10-22T00:35:58.603Z,81.95
2017-10-22T00:36:24.726Z,81.95
2017-10-22T00:36:50.849Z,82.04
2017-10-22T00:37:16.965Z,81.85
2017-10-22T00:37:43.093Z,81.95
2017-10-22T00:38:09.223Z,82.14
2017-10-22T00:38:35.351Z,81.95
2017-10-22T00:39:01.477Z,81.95
2017-10-22T00:39:27.592Z,82.23
2017-10-22T00:39:53.734Z,82.61
2017-10-22T00:40:19.862Z,82.14
2017-10-22T00:40:45.981Z,82.61
2017-10-22T00:41:12.098Z,82.04
2017-10-22T00:41:38.226Z,82.23
2017-10-22T00:42:04.351Z,82.04
2017-10-22T00:42:30.467Z,82.14
2017-10-22T00:42:56.612Z,82.14
2017-10-22T00:43:22.738Z,81.95
2017-10-22T00:43:48.854Z,82.14
2017-10-22T00:44:14.998Z,81.85
2017-10-22T00:44:41.121Z,82.61
2017-10-22T00:45:07.245Z,82.04
2017-10-22T00:45:33.363Z,82.52
2017-10-22T00:45:59.490Z,82.32
2017-10-22T00:46:25.608Z,82.42
2017-10-22T00:46:51.735Z,81.85
2017-10-22T00:47:17.853Z,82.04
2017-10-22T00:47:43.971Z,82.32
2017-10-22T00:48:10.100Z,82.32
2017-10-22T00:48:36.221Z,82.23
2017-10-22T00:49:02.341Z,82.52
2017-10-22T00:49:28.459Z,82.52
2017-10-22T00:49:54.586Z,82.04
2017-10-22T00:50:20.710Z,82.04
2017-10-22T00:50:46.828Z,81.95
2017-10-22T00:51:12.949Z,82.32
2017-10-22T00:51:39.074Z,82.04
2017-10-22T00:52:05.198Z,82.23
2017-10-22T00:52:31.324Z,82.04
2017-10-22T00:52:57.444Z,82.32
2017-10-22T00:53:23.571Z,82.52
2017-10-22T00:53:49.700Z,82.23
2017-10-22T00:54:15.847Z,82.61
2017-10-22T00:54:42.028Z,82.32
2017-10-22T00:55:08.198Z,82.04
2017-10-22T00:55:34.340Z,82.23
2017-10-22T00:56:00.484Z,81.85
2017-10-22T00:56:26.629Z,81.76
2017-10-22T00:56:52.771Z,81.66
2017-10-22T00:57:18.928Z,81.85
2017-10-22T00:57:45.065Z,81.85
2017-10-22T00:58:11.214Z,82.14
2017-10-22T00:58:37.356Z,82.04
2017-10-22T00:59:03.498Z,82.14
2017-10-22T00:59:29.646Z,82.14
2017-10-22T00:59:55.788Z,81.95
2017-10-22T01:00:21.928Z,82.04
2017-10-22T01:00:48.077Z,82.23
2017-10-22T01:01:14.226Z,82.23
2017-10-22T01:01:40.375Z,81.76
2017-10-22T01:02:06.516Z,82.14
2017-10-22T01:02:32.659Z,82.23
2017-10-22T01:02:58.810Z,82.52
2017-10-22T01:03:24.953Z,82.42
2017-10-22T01:03:51.109Z,81.95
2017-10-22T01:04:17.255Z,82.14
2017-10-22T01:04:43.393Z,82.04
2017-10-22T01:05:09.543Z,82.04
2017-10-22T01:05:35.686Z,82.04
2017-10-22T01:06:01.826Z,81.95
2017-10-22T01:06:27.977Z,82.32
2017-10-22T01:06:54.123Z,83
2017-10-22T01:07:20.265Z,82.14
2017-10-22T01:07:46.408Z,82.52
2017-10-22T01:08:12.562Z,82.04
2017-10-22T01:08:38.699Z,81.76
2017-10-22T01:09:04.876Z,82.04
2017-10-22T01:09:31.018Z,82.04
2017-10-22T01:09:57.169Z,82.04
2017-10-22T01:10:23.314Z,81.95
2017-10-22T01:10:49.485Z,81.76
2017-10-22T01:11:15.638Z,81.76
2017-10-22T01:11:41.780Z,82.14
2017-10-22T01:12:07.923Z,82.71
2017-10-22T01:12:34.074Z,82.23
2017-10-22T01:13:00.215Z,82.09
2017-10-22T01:13:26.366Z,82.04
2017-10-22T01:13:52.512Z,82.42
2017-10-22T01:14:18.656Z,82.32
2017-10-22T01:14:44.811Z,82.29
2017-10-22T01:15:10.945Z,82.23
2017-10-22T01:15:37.095Z,82.23
2017-10-22T01:16:03.235Z,82.19
2017-10-22T01:16:29.384Z,82.86
2017-10-22T01:16:56.730Z,82.29
2017-10-22T01:17:22.892Z,82.38
2017-10-22T01:17:49.042Z,82.67
2017-10-22T01:18:15.198Z,82.67
2017-10-22T01:18:41.344Z,82.57
2017-10-22T01:19:07.482Z,82.48
2017-10-22T01:19:33.621Z,82.48
2017-10-22T01:19:59.814Z,82.76
2017-10-22T01:20:25.941Z,82.38
2017-10-22T01:20:52.096Z,82.67
2017-10-22T01:21:18.239Z,82.57
2017-10-22T01:21:44.386Z,82.38
2017-10-22T01:22:10.541Z,82.38
2017-10-22T01:22:36.684Z,82.19
2017-10-22T01:23:02.835Z,82.67
2017-10-22T01:23:28.970Z,82.48
2017-10-22T01:23:55.121Z,82.38
2017-10-22T01:24:21.263Z,82.38
2017-10-22T01:24:47.407Z,82.38
2017-10-22T01:25:13.573Z,82.48
2017-10-22T01:25:39.722Z,82.19
2017-10-22T01:26:05.867Z,82.57
2017-10-22T01:26:32.005Z,82.19
2017-10-22T01:26:58.145Z,82.19
2017-10-22T01:27:24.299Z,82.09
2017-10-22T01:27:50.463Z,82.76
2017-10-22T01:28:16.588Z,82
2017-10-22T01:28:42.738Z,81.9
2017-10-22T01:29:08.906Z,82.09
2017-10-22T01:29:35.054Z,81.9
2017-10-22T01:30:01.202Z,81.71
2017-10-22T01:30:27.351Z,81.76
2017-10-22T01:30:53.498Z,81.62
2017-10-22T01:31:19.633Z,82.09
2017-10-22T01:31:45.783Z,81.9
2017-10-22T01:32:11.924Z,81.9
2017-10-22T01:32:38.101Z,82.67
2017-10-22T01:33:04.243Z,81.71
2017-10-22T01:33:30.416Z,81.71
2017-10-22T01:33:56.564Z,81.9
2017-10-22T01:34:22.703Z,81.71
2017-10-22T01:34:48.855Z,81.9
2017-10-22T01:35:15.019Z,82.09
2017-10-22T01:35:41.167Z,81.71
2017-10-22T01:36:07.310Z,81.62
2017-10-22T01:36:33.453Z,81.9
2017-10-22T01:36:59.600Z,81.62
2017-10-22T01:37:25.746Z,81.9
2017-10-22T01:37:51.888Z,81.9
2017-10-22T01:38:18.040Z,82.09
2017-10-22T01:38:44.179Z,82.09
2017-10-22T01:39:10.324Z,81.43
2017-10-22T01:39:36.491Z,82
2017-10-22T01:40:02.664Z,81.71
2017-10-22T01:40:28.838Z,81.62
2017-10-22T01:40:54.984Z,82
2017-10-22T01:41:21.126Z,82
2017-10-22T01:41:47.268Z,81.9
2017-10-22T01:42:13.420Z,81.71
2017-10-22T01:42:39.560Z,82
2017-10-22T01:43:05.716Z,82.48
2017-10-22T01:43:31.908Z,82.67
2017-10-22T01:43:58.061Z,81.81
2017-10-22T01:44:24.210Z,82.09
2017-10-22T01:44:50.347Z,82.09
2017-10-22T01:45:16.521Z,82.09
2017-10-22T01:45:42.665Z,82
2017-10-22T01:46:08.813Z,81.71
2017-10-22T01:46:34.954Z,81.81
2017-10-22T01:47:01.095Z,81.71
2017-10-22T01:47:27.245Z,81.62
2017-10-22T01:47:53.404Z,81.62
2017-10-22T01:48:19.530Z,81.62
2017-10-22T01:48:45.704Z,81.52
2017-10-22T01:49:11.852Z,81.81
2017-10-22T01:49:37.994Z,81.43
2017-10-22T01:50:04.144Z,81.62
2017-10-22T01:50:30.291Z,81.62
2017-10-22T01:50:56.439Z,81.52
2017-10-22T01:51:22.583Z,81.62
2017-10-22T01:51:48.726Z,81.71
2017-10-22T01:52:14.874Z,81.43
2017-10-22T01:52:41.023Z,81.43
2017-10-22T01:53:07.186Z,81.52
2017-10-22T01:53:33.331Z,81.04
2017-10-22T01:53:59.476Z,80.85
2017-10-22T01:54:25.628Z,81.52
2017-10-22T01:54:51.765Z,81.14
2017-10-22T01:55:17.909Z,80.95
2017-10-22T01:55:44.061Z,80.95
2017-10-22T01:56:10.204Z,81.14
2017-10-22T01:56:36.348Z,80.95
2017-10-22T01:57:02.498Z,81.33
2017-10-22T01:57:28.647Z,81.71
2017-10-22T01:57:54.788Z,81.62
2017-10-22T01:58:20.935Z,81.52
2017-10-22T01:58:47.076Z,81.62
2017-10-22T01:59:13.219Z,81.24
2017-10-22T01:59:39.365Z,81.33
2017-10-22T02:00:05.513Z,81.04
2017-10-22T02:00:31.683Z,81.52
2017-10-22T02:00:57.819Z,81.71
2017-10-22T02:01:23.969Z,81.24
2017-10-22T02:01:50.116Z,80.85
2017-10-22T02:02:16.259Z,80.85
2017-10-22T02:02:42.402Z,81.43
2017-10-22T02:03:08.555Z,81.33
2017-10-22T02:03:34.702Z,81.04
2017-10-22T02:04:00.844Z,81.33
2017-10-22T02:04:26.991Z,81.14
2017-10-22T02:04:53.130Z,81.04
2017-10-22T02:05:19.310Z,81.24
2017-10-22T02:05:45.449Z,81.04
2017-10-22T02:06:11.591Z,81.62
2017-10-22T02:06:37.745Z,81.52
2017-10-22T02:07:03.895Z,81.33
2017-10-22T02:07:30.038Z,81.14
2017-10-22T02:07:56.181Z,81.04
2017-10-22T02:08:22.328Z,81.33
2017-10-22T02:08:48.475Z,81.52
2017-10-22T02:09:14.615Z,81.52
2017-10-22T02:09:40.766Z,81.04
2017-10-22T02:10:06.909Z,81.14
2017-10-22T02:10:33.058Z,81.04
2017-10-22T02:10:59.197Z,80.95
2017-10-22T02:11:25.350Z,81.33
2017-10-22T02:11:51.496Z,81.9
2017-10-22T02:12:17.657Z,81.71
2017-10-22T02:12:43.802Z,81.43
2017-10-22T02:13:09.998Z,81.71
2017-10-22T02:13:36.139Z,81.62
2017-10-22T02:14:02.286Z,81.9
2017-10-22T02:14:28.429Z,81.62
2017-10-22T02:14:54.574Z,81.62
2017-10-22T02:15:20.753Z,81.43
2017-10-22T02:15:46.894Z,81.71
2017-10-22T02:16:13.048Z,81.81
2017-10-22T02:16:39.195Z,81.52
2017-10-22T02:17:05.337Z,81.33
2017-10-22T02:17:31.481Z,81.43
2017-10-22T02:17:57.630Z,81.14
2017-10-22T02:18:23.771Z,81.04
2017-10-22T02:18:49.912Z,81.04
2017-10-22T02:19:16.057Z,80.85
2017-10-22T02:19:42.197Z,81.24
2017-10-22T02:20:08.343Z,81.9
2017-10-22T02:20:34.499Z,81.81
2017-10-22T02:21:00.646Z,81.24
2017-10-22T02:21:26.824Z,81.62
2017-10-22T02:21:52.978Z,81.62
2017-10-22T02:22:19.152Z,82
2017-10-22T02:22:45.282Z,81.9
2017-10-22T02:23:11.425Z,82.19
2017-10-22T02:23:37.578Z,82.09
2017-10-22T02:24:03.718Z,81.62
2017-10-22T02:24:29.865Z,81.9
2017-10-22T02:24:56.035Z,81.62
2017-10-22T02:25:22.179Z,81.9
2017-10-22T02:25:48.332Z,82
2017-10-22T02:26:14.480Z,82.09
2017-10-22T02:26:40.640Z,81.62
2017-10-22T02:27:06.806Z,82
2017-10-22T02:27:32.958Z,81.81
2017-10-22T02:27:59.101Z,82.09
2017-10-22T02:28:25.245Z,81.52
2017-10-22T02:28:51.389Z,82
2017-10-22T02:29:17.540Z,82
2017-10-22T02:29:43.692Z,82.09
2017-10-22T02:30:09.861Z,82.09
2017-10-22T02:30:36.012Z,82
2017-10-22T02:31:02.172Z,82.09
2017-10-22T02:31:28.305Z,82.09
2017-10-22T02:31:54.467Z,81.81
2017-10-22T02:32:20.610Z,81.81
2017-10-22T02:32:46.758Z,81.9
2017-10-22T02:33:12.905Z,82
2017-10-22T02:33:39.049Z,81.9
2017-10-22T02:34:05.204Z,81.9
2017-10-22T02:34:31.349Z,82.29
2017-10-22T02:34:57.489Z,82.19
2017-10-22T02:35:23.634Z,82
2017-10-22T02:35:49.779Z,82.19
2017-10-22T02:36:15.933Z,82.09
2017-10-22T02:36:42.073Z,82
2017-10-22T02:37:08.221Z,82
2017-10-22T02:37:34.381Z,81.71
2017-10-22T02:38:00.513Z,81.81
2017-10-22T02:38:26.649Z,81.9
2017-10-22T02:38:52.792Z,82
2017-10-22T02:39:18.935Z,82.09
2017-10-22T02:39:45.096Z,81.81
2017-10-22T02:40:11.272Z,81.86
2017-10-22T02:40:37.412Z,82.38
2017-10-22T02:41:03.557Z,82.15
2017-10-22T02:41:29.701Z,82.24
2017-10-22T02:41:55.848Z,82.19
2017-10-22T02:42:21.997Z,81.9
2017-10-22T02:42:48.145Z,82.76
2017-10-22T02:43:14.286Z,82.29
2017-10-22T02:43:40.429Z,82.48
2017-10-22T02:44:06.567Z,81.77
2017-10-22T02:44:32.713Z,82.53
2017-10-22T02:44:58.861Z,82.06
2017-10-22T02:45:25.010Z,82.19
2017-10-22T02:45:51.155Z,82.19
2017-10-22T02:46:17.320Z,82.19
2017-10-22T02:46:43.468Z,82
2017-10-22T02:47:09.617Z,82.67
2017-10-22T02:47:35.756Z,82.09
2017-10-22T02:48:01.906Z,82
2017-10-22T02:48:28.101Z,82.48
2017-10-22T02:48:54.248Z,81.71
2017-10-22T02:49:20.387Z,81.81
2017-10-22T02:49:46.539Z,81.71
2017-10-22T02:50:12.678Z,81.9
2017-10-22T02:50:38.832Z,82
2017-10-22T02:51:04.971Z,82.09
2017-10-22T02:51:31.142Z,81.81
2017-10-22T02:51:57.290Z,81.81
2017-10-22T02:52:23.433Z,82.19
2017-10-22T02:52:49.580Z,82.09
2017-10-22T02:53:15.728Z,82.19
2017-10-22T02:53:41.868Z,82
2017-10-22T02:54:08.047Z,82
2017-10-22T02:54:34.182Z,81.43
2017-10-22T02:55:00.326Z,82
2017-10-22T02:55:26.474Z,81.9
2017-10-22T02:55:52.618Z,81.9
2017-10-22T02:56:18.762Z,81.71
2017-10-22T02:56:44.932Z,81.71
2017-10-22T02:57:11.071Z,82
2017-10-22T02:57:37.235Z,81.81
2017-10-22T02:58:03.377Z,81.71
2017-10-22T02:58:29.519Z,81.71
2017-10-22T02:58:55.679Z,81.81
2017-10-22T02:59:21.820Z,82
2017-10-22T02:59:47.966Z,82.57
2017-10-22T03:00:14.111Z,82.57
2017-10-22T03:00:40.266Z,82
2017-10-22T03:01:06.405Z,82.09
2017-10-22T03:01:32.551Z,82.76
2017-10-22T03:01:58.692Z,82.57
2017-10-22T03:02:24.846Z,82.76
2017-10-22T03:02:50.993Z,82.76
2017-10-22T03:03:17.131Z,81.9
2017-10-22T03:03:43.280Z,82.76
2017-10-22T03:04:09.420Z,82.38
2017-10-22T03:04:35.578Z,82.29
2017-10-22T03:05:01.723Z,82.57
2017-10-22T03:05:27.866Z,82.09
2017-10-22T03:05:54.022Z,82.38
2017-10-22T03:06:20.163Z,82.29
2017-10-22T03:06:46.329Z,82.19
2017-10-22T03:07:12.473Z,81.9
2017-10-22T03:07:38.624Z,82
2017-10-22T03:08:04.798Z,81.81
2017-10-22T03:08:30.938Z,82.48
2017-10-22T03:08:57.088Z,82.09
2017-10-22T03:09:23.232Z,82.48
2017-10-22T03:09:49.386Z,82.67
2017-10-22T03:10:15.527Z,82.29
2017-10-22T03:10:41.668Z,81.9
2017-10-22T03:11:07.816Z,82
2017-10-22T03:11:33.962Z,82.09
2017-10-22T03:12:00.101Z,82.09
2017-10-22T03:12:26.250Z,81.71
2017-10-22T03:12:52.389Z,81.71
2017-10-22T03:13:18.536Z,81.71
2017-10-22T03:13:44.680Z,81.71
2017-10-22T03:14:10.825Z,81.71
2017-10-22T03:14:36.979Z,81.71
2017-10-22T03:15:03.123Z,81.81
2017-10-22T03:15:29.265Z,81.62
2017-10-22T03:15:55.417Z,81.81
2017-10-22T03:16:21.557Z,81.43
2017-10-22T03:16:47.699Z,81.62
2017-10-22T03:17:13.852Z,81.52
2017-10-22T03:17:39.992Z,81.52
2017-10-22T03:18:06.145Z,81.62
2017-10-22T03:18:32.283Z,81.14
2017-10-22T03:18:58.430Z,81.04
2017-10-22T03:19:24.580Z,80.85
2017-10-22T03:19:50.726Z,80.85
2017-10-22T03:20:16.872Z,80.76
2017-10-22T03:20:43.019Z,80.76
2017-10-22T03:21:09.167Z,80.85
2017-10-22T03:21:35.308Z,80.66
2017-10-22T03:22:01.447Z,80.66
2017-10-22T03:22:27.597Z,80.76
2017-10-22T03:22:53.771Z,80.95
2017-10-22T03:23:19.912Z,80.38
2017-10-22T03:23:46.056Z,80.76
2017-10-22T03:24:12.206Z,80.57
2017-10-22T03:24:38.354Z,80.38
2017-10-22T03:25:04.493Z,80.28
2017-10-22T03:25:30.638Z,80.28
2017-10-22T03:25:56.793Z,80.47
2017-10-22T03:26:22.937Z,80.57
2017-10-22T03:26:49.102Z,80.47
2017-10-22T03:27:15.281Z,80.66
2017-10-22T03:27:41.427Z,80.85
2017-10-22T03:28:07.574Z,80.47
2017-10-22T03:28:33.713Z,79.99
2017-10-22T03:28:59.850Z,80.09
2017-10-22T03:29:26.000Z,80.38
2017-10-22T03:29:52.145Z,79.8
2017-10-22T03:30:18.319Z,80.09
2017-10-22T03:30:44.461Z,80.38
2017-10-22T03:31:10.608Z,79.9
2017-10-22T03:31:36.757Z,80.19
2017-10-22T03:32:02.900Z,80.28
2017-10-22T03:32:29.043Z,79.99
2017-10-22T03:32:55.194Z,80.38
2017-10-22T03:33:21.336Z,80.28
2017-10-22T03:33:47.492Z,79.8
2017-10-22T03:34:13.636Z,79.8
2017-10-22T03:34:39.775Z,79.8
2017-10-22T03:35:05.948Z,79.8
2017-10-22T03:35:32.100Z,79.71
2017-10-22T03:35:58.235Z,79.61
2017-10-22T03:36:24.386Z,79.9
2017-10-22T03:36:50.528Z,79.33
2017-10-22T03:37:16.703Z,79.23
2017-10-22T03:37:42.866Z,79.27
2017-10-22T03:38:09.036Z,79.71
2017-10-22T03:38:35.179Z,79.52
2017-10-22T03:39:01.338Z,79.52
2017-10-22T03:39:27.477Z,79.52
2017-10-22T03:39:53.617Z,79.14
2017-10-22T03:40:19.765Z,79.61
2017-10-22T03:40:45.911Z,79.99
2017-10-22T03:41:12.055Z,79.9
2017-10-22T03:41:38.208Z,79.52
2017-10-22T03:42:04.353Z,79.43
2017-10-22T03:42:30.494Z,79.9
2017-10-22T03:42:56.636Z,79.46
2017-10-22T03:43:22.788Z,79.56
2017-10-22T03:43:48.922Z,78.99
2017-10-22T03:44:15.073Z,78.94
2017-10-22T03:44:41.217Z,78.85
2017-10-22T03:45:07.365Z,79.33
2017-10-22T03:45:33.516Z,78.85
2017-10-22T03:45:59.660Z,78.66
2017-10-22T03:46:25.815Z,78.99
2017-10-22T03:46:51.972Z,79.17
2017-10-22T03:47:18.118Z,78.94
2017-10-22T03:47:44.266Z,78.85
2017-10-22T03:48:10.417Z,78.94
2017-10-22T03:48:36.557Z,79.85
2017-10-22T03:49:02.700Z,78.85
2017-10-22T03:49:28.850Z,78.75
2017-10-22T03:49:54.986Z,78.85
2017-10-22T03:50:21.146Z,79.65
2017-10-22T03:50:47.293Z,79.61
2017-10-22T03:51:13.434Z,80.19
2017-10-22T03:51:39.578Z,80.66
2017-10-22T03:52:05.721Z,80.66
2017-10-22T03:52:31.861Z,81.04
2017-10-22T03:52:58.009Z,80.76
2017-10-22T03:53:24.155Z,80.85
2017-10-22T03:53:50.295Z,80.61
2017-10-22T03:54:16.447Z,80.57
2017-10-22T03:54:42.589Z,80.57
2017-10-22T03:55:08.732Z,80.7
2017-10-22T03:55:34.882Z,80.7
2017-10-22T03:56:01.027Z,80.09
2017-10-22T03:56:27.196Z,79.8
2017-10-22T03:56:53.342Z,79.9
2017-10-22T03:57:19.484Z,79.9
2017-10-22T03:57:45.631Z,79.43
2017-10-22T03:58:11.780Z,79.52
2017-10-22T03:58:37.922Z,79.33
2017-10-22T03:59:04.072Z,79.61
2017-10-22T03:59:30.215Z,79.8
2017-10-22T03:59:56.368Z,79.61
2017-10-22T04:00:22.515Z,79.8
2017-10-22T04:00:48.656Z,79.33
2017-10-22T04:01:14.801Z,79.43
2017-10-22T04:01:40.947Z,79.61
2017-10-22T04:02:07.090Z,79.23
2017-10-22T04:02:33.236Z,78.75
2017-10-22T04:02:59.384Z,78.56
2017-10-22T04:03:25.525Z,79.04
2017-10-22T04:03:51.675Z,78.94
2017-10-22T04:04:17.817Z,79.52
2017-10-22T04:04:43.966Z,78.75
2017-10-22T04:05:10.117Z,78.37
2017-10-22T04:05:36.265Z,78.85
2017-10-22T04:06:02.411Z,78.75
2017-10-22T04:06:28.550Z,78.75
2017-10-22T04:06:54.696Z,78.56
2017-10-22T04:07:20.836Z,78.47
2017-10-22T04:07:46.984Z,78.37
2017-10-22T04:08:13.134Z,78.47
2017-10-22T04:08:39.270Z,78.47
2017-10-22T04:09:05.443Z,78.28
2017-10-22T04:09:31.592Z,78.37
2017-10-22T04:09:57.739Z,78.56
2017-10-22T04:10:23.877Z,78.94
2017-10-22T04:10:50.022Z,78.85
2017-10-22T04:11:16.170Z,79.14
2017-10-22T04:11:42.315Z,79.43
2017-10-22T04:12:08.467Z,79.43
2017-10-22T04:12:34.614Z,79.61
2017-10-22T04:13:00.763Z,79.99
2017-10-22T04:13:26.904Z,80.47
2017-10-22T04:13:53.058Z,80.19
2017-10-22T04:14:19.192Z,79.8
2017-10-22T04:14:45.343Z,79.8
2017-10-22T04:15:11.490Z,79.99
2017-10-22T04:15:37.633Z,79.8
2017-10-22T04:16:03.783Z,80.47
2017-10-22T04:16:29.933Z,80.09
2017-10-22T04:16:56.069Z,80.38
2017-10-22T04:17:22.225Z,79.71
2017-10-22T04:17:48.357Z,79.9
2017-10-22T04:18:14.510Z,79.71
2017-10-22T04:18:40.671Z,79.71
2017-10-22T04:19:06.800Z,79.61
2017-10-22T04:19:32.945Z,79.52
2017-10-22T04:19:59.090Z,79.8
2017-10-22T04:20:25.264Z,80.38
2017-10-22T04:20:51.438Z,79.99
2017-10-22T04:21:17.584Z,79.8
2017-10-22T04:21:43.725Z,79.8
2017-10-22T04:22:09.866Z,79.9
2017-10-22T04:22:36.018Z,80.19
2017-10-22T04:23:02.162Z,79.8
2017-10-22T04:23:28.303Z,79.77
2017-10-22T04:23:54.451Z,80.28
2017-10-22T04:24:20.594Z,80.05
2017-10-22T04:24:46.747Z,80.05
2017-10-22T04:25:12.886Z,79.96
2017-10-22T04:25:39.027Z,80.24
2017-10-22T04:26:05.184Z,80.24
2017-10-22T04:26:31.328Z,80.24
2017-10-22T04:26:57.480Z,80.33
2017-10-22T04:27:23.645Z,80.53
2017-10-22T04:27:49.816Z,81.1
2017-10-22T04:28:15.954Z,80.53
2017-10-22T04:28:42.102Z,81.01
2017-10-22T04:29:08.242Z,80.85
2017-10-22T04:29:34.391Z,81.04
2017-10-22T04:30:00.543Z,80.81
2017-10-22T04:30:26.688Z,80.72
2017-10-22T04:30:52.827Z,80.81
2017-10-22T04:31:18.979Z,80.95
2017-10-22T04:31:45.117Z,80.85
2017-10-22T04:32:11.264Z,80.66
2017-10-22T04:32:37.403Z,80.72
2017-10-22T04:33:03.551Z,80.85
2017-10-22T04:33:29.688Z,80.66
2017-10-22T04:33:55.837Z,80.53
2017-10-22T04:34:21.984Z,80.66
2017-10-22T04:34:48.125Z,80.47
2017-10-22T04:35:14.271Z,80.57
2017-10-22T04:35:40.414Z,79.96
2017-10-22T04:36:06.564Z,80.09
2017-10-22T04:36:32.712Z,80.19
2017-10-22T04:36:58.854Z,80.19
2017-10-22T04:37:25.002Z,79.99
2017-10-22T04:37:51.138Z,80.19
2017-10-22T04:38:17.296Z,79.61
2017-10-22T04:38:43.443Z,79.8
2017-10-22T04:39:09.589Z,80.38
2017-10-22T04:39:35.764Z,79.61
2017-10-22T04:40:01.902Z,79.8
2017-10-22T04:40:28.045Z,79.71
2017-10-22T04:40:54.188Z,79.61
2017-10-22T04:41:20.338Z,80.28
2017-10-22T04:41:46.487Z,79.61
2017-10-22T04:42:12.633Z,79.71
2017-10-22T04:42:38.781Z,79.9
2017-10-22T04:43:04.922Z,79.61
2017-10-22T04:43:31.066Z,79.61
2017-10-22T04:43:57.213Z,79.8
2017-10-22T04:44:23.356Z,79.9
2017-10-22T04:44:49.508Z,79.8
2017-10-22T04:45:15.645Z,80.19
2017-10-22T04:45:41.785Z,79.52
2017-10-22T04:46:07.964Z,79.8
2017-10-22T04:46:34.106Z,79.8
2017-10-22T04:47:00.270Z,79.8
2017-10-22T04:47:26.414Z,79.9
2017-10-22T04:47:52.557Z,79.9
2017-10-22T04:48:18.706Z,79.9
2017-10-22T04:48:44.876Z,79.52
2017-10-22T04:49:11.021Z,79.99
2017-10-22T04:49:37.198Z,80.24
2017-10-22T04:50:03.366Z,80.19
2017-10-22T04:50:29.512Z,80.28
2017-10-22T04:50:55.654Z,80.15
2017-10-22T04:51:21.808Z,80.28
2017-10-22T04:51:47.942Z,80.09
2017-10-22T04:52:14.093Z,80.28
2017-10-22T04:52:40.243Z,80.57
2017-10-22T04:53:06.406Z,80.66
2017-10-22T04:53:32.546Z,80.57
2017-10-22T04:53:58.695Z,80.66
2017-10-22T04:54:24.849Z,80.38
2017-10-22T04:54:50.988Z,80.57
2017-10-22T04:55:17.137Z,80.85
2017-10-22T04:55:43.282Z,80.85
2017-10-22T04:56:09.431Z,80.85
2017-10-22T04:56:35.570Z,80.57
2017-10-22T04:57:01.720Z,80.85
2017-10-22T04:57:27.860Z,80.47
2017-10-22T04:57:54.037Z,80.62
2017-10-22T04:58:20.176Z,80.38
2017-10-22T04:58:46.325Z,80.66
2017-10-22T04:59:12.468Z,80.85
2017-10-22T04:59:38.614Z,80.91
2017-10-22T05:00:04.762Z,80.15
2017-10-22T05:00:30.897Z,80.53
2017-10-22T05:00:57.047Z,80.53
2017-10-22T05:01:23.196Z,80.62
2017-10-22T05:01:49.337Z,80.81
2017-10-22T05:02:15.486Z,80.81
2017-10-22T05:02:41.633Z,80.62
2017-10-22T05:03:07.782Z,81.1
2017-10-22T05:03:33.922Z,80.62
2017-10-22T05:04:00.072Z,81.2
2017-10-22T05:04:26.213Z,81.1
2017-10-22T05:04:52.364Z,81.2
2017-10-22T05:05:18.507Z,81.1
2017-10-22T05:05:44.655Z,81.14
2017-10-22T05:06:10.791Z,81.04
2017-10-22T05:06:36.941Z,81.38
2017-10-22T05:07:03.082Z,81.86
2017-10-22T05:07:29.224Z,82.15
2017-10-22T05:07:55.369Z,82.24
2017-10-22T05:08:21.511Z,82.24
2017-10-22T05:08:47.656Z,82.34
2017-10-22T05:09:13.809Z,83.01
2017-10-22T05:09:39.952Z,83.58
2017-10-22T05:10:06.101Z,83.01
2017-10-22T05:10:32.240Z,83.01
2017-10-22T05:10:58.389Z,82.91
2017-10-22T05:11:24.555Z,83.67
2017-10-22T05:11:50.705Z,83.48
2017-10-22T05:12:16.845Z,83.58
2017-10-22T05:12:42.989Z,83.67
2017-10-22T05:13:09.145Z,84.44
2017-10-22T05:13:35.294Z,84.06
2017-10-22T05:14:01.431Z,84.92
2017-10-22T05:14:27.571Z,84.34
2017-10-22T05:14:53.723Z,84.44
2017-10-22T05:15:19.869Z,84.34
2017-10-22T05:15:46.015Z,84.25
2017-10-22T05:16:12.164Z,84.25
2017-10-22T05:16:38.302Z,84.06
2017-10-22T05:17:04.481Z,84.34
2017-10-22T05:17:30.618Z,84.34
2017-10-22T05:17:56.764Z,84.82
2017-10-22T05:18:23.096Z,84.92
2017-10-22T05:18:49.292Z,85.01
2017-10-22T05:19:15.426Z,85.58
2017-10-22T05:19:41.576Z,85.58
2017-10-22T05:20:07.746Z,85.3
2017-10-22T05:20:33.901Z,85.58
2017-10-22T05:21:00.447Z,85.21
2017-10-22T05:21:26.562Z,86.16
2017-10-22T05:21:52.713Z,86.54
2017-10-22T05:22:18.864Z,86.16
2017-10-22T05:22:45.002Z,87.21
2017-10-22T05:23:11.151Z,87.78
2017-10-22T05:23:37.319Z,88.5
2017-10-22T05:24:03.471Z,88.31
2017-10-22T05:24:29.618Z,88.26
2017-10-22T05:24:55.793Z,88.35
2017-10-22T05:25:21.933Z,88.83
2017-10-22T05:25:48.083Z,89.59
2017-10-22T05:26:14.227Z,88.92
2017-10-22T05:26:40.368Z,88.92
2017-10-22T05:27:06.517Z,88.35
2017-10-22T05:27:32.664Z,87.87
2017-10-22T05:27:58.813Z,88.78
2017-10-22T05:28:24.959Z,88.78
2017-10-22T05:28:51.096Z,88.5
2017-10-22T05:29:17.241Z,89.54
2017-10-22T05:29:43.401Z,89.17
2017-10-22T05:30:09.538Z,88.98
2017-10-22T05:30:35.704Z,89.07
2017-10-22T05:31:01.853Z,89.07
2017-10-22T05:31:27.995Z,88.88
2017-10-22T05:31:54.135Z,88.59
2017-10-22T05:32:20.280Z,89.26
2017-10-22T05:32:46.433Z,90.22
2017-10-22T05:33:12.574Z,90.79
2017-10-22T05:33:38.744Z,90.98
2017-10-22T05:34:04.894Z,91.83
2017-10-22T05:34:31.039Z,91.83
2017-10-22T05:34:57.208Z,92.03
2017-10-22T05:35:23.355Z,91.64
2017-10-22T05:35:49.493Z,92.41
2017-10-22T05:36:15.638Z,92.5
2017-10-22T05:36:41.787Z,92.98
2017-10-22T05:37:07.957Z,93.55
2017-10-22T05:37:34.106Z,93.65
2017-10-22T05:38:00.256Z,93.65
2017-10-22T05:38:26.394Z,94.12
2017-10-22T05:38:52.561Z,95.17